Flight Track Log - Related Links

Times and Time Zones

All times are in EDT time to prevent confusion due to time zone crossing. See the DAL268 flight status page for this flight to view local times or setup timezone preferences in your user account.

Time Position Orientation Groundspeed Altitude Reporting Facility
EDT Latitude Longitude Course Direction KTS MPH feet Rate Location/Type
Sat 01:58:11 40.5667 -73.5333 90° East 319 367 6,900  Level New York TRACON
Sat 01:59:11 40.5667 -73.4167 69° East 330 380 9,500 2,100 Climbing New York TRACON
Sat 02:00:11 40.6000 -73.3000 66° East 349 402 11,100 1,333 Climbing New York TRACON
Sat 02:01:17 40.6500 -73.1500 74° East 408 470 12,300 1,619 Climbing New York TRACON
Sat 02:02:17 40.6833 -73.0000 65° Northeast 433 498 14,500 2,056 Climbing New York TRACON
Sat 02:03:40 40.7576 -72.7844 68° East 457 526 17,200 1,930 Climbing FlightAware ADS-B
Sat 02:04:12 40.7830 -72.7009 68° East 463 533 18,200 1,810 Climbing FlightAware ADS-B
Sat 02:04:43 40.8078 -72.6193 68° East 469 540 19,100 1,770 Climbing FlightAware ADS-B
Sat 02:05:13 40.8327 -72.5372 68° East 475 547 20,000 1,700 Climbing FlightAware ADS-B
Sat 02:05:43 40.8575 -72.4553 68° East 479 551 20,800 1,574 Climbing FlightAware ADS-B
Sat 02:06:14 40.8828 -72.3716 68° East 484 557 21,600 1,548 Climbing FlightAware ADS-B
Sat 02:06:45 40.9084 -72.2868 68° East 489 563 22,400 1,619 Climbing FlightAware ADS-B
Sat 02:07:17 40.9350 -72.1975 69° East 492 566 23,300 1,714 Climbing FlightAware ADS-B
Sat 02:07:48 40.9607 -72.1106 69° East 492 566 24,200 1,770 Climbing FlightAware ADS-B
Sat 02:08:18 40.9860 -72.0247 69° East 491 565 25,100 1,423 Climbing FlightAware ADS-B
Sat 02:09:25 41.0416 -71.8369 69° East 498 573 26,500 1,139 Climbing FlightAware ADS-B
Sat 02:10:35 41.1004 -71.6368 69° East 508 585 27,700 1,165 Climbing FlightAware ADS-B
Sat 02:11:08 41.1281 -71.5414 69° East 506 582 28,500 1,361 Climbing FlightAware ADS-B
Sat 02:12:12 41.1822 -71.3553 68° East 506 582 29,900 1,100 Climbing FlightAware ADS-B
Sat 02:13:08 41.2206 -71.2258 69° East 493 567 30,700 569 Climbing Boston Center
Sat 02:14:08 41.2706 -71.0536 70° East 493 567 31,000 150 Climbing Boston Center
Sat 02:15:08 41.3183 -70.8786 69° East 493 567 31,000  Level Boston Center
Sat 02:16:08 41.3658 -70.7114 69° East 493 567 31,000  Level Boston Center
Sat 02:17:08 41.4172 -70.5356 71° East 493 567 31,000  Level Boston Center
Sat 02:18:08 41.4642 -70.3542 70° East 503 579 31,000  Level Boston Center
Sat 02:19:08 41.5128 -70.1778 67° East 503 579 31,000  Level Boston Center
Sat 02:20:08 41.5675 -70.0067 72° East 503 579 31,000  Level Boston Center
Sat 02:21:08 41.6117 -69.8272 71° East 503 579 31,000  Level Boston Center
Sat 02:22:08 41.6572 -69.6503 69° East 503 579 31,000  Level Boston Center
Sat 02:23:08 41.7072 -69.4756 73° East 503 579 31,000  Level Boston Center
Sat 02:24:08 41.7500 -69.2928 68° East 503 579 31,000  Level Boston Center
Sat 02:25:08 41.8014 -69.1175 69° East 503 579 31,000  Level Boston Center
Sat 02:26:08 41.8558 -68.9222 77° East 503 579 31,000  Level Boston Center
Sat 02:27:02 41.8833 -68.7667 71° East 510 587 31,000  Level Moncton Center
Sat 02:28:02 41.9333 -68.5667 68° East 510 587 31,000  Level Moncton Center
Sat 02:29:02 41.9833 -68.4000 76° East 510 587 31,000 50 Level Moncton Center
Sat 02:30:02 42.0167 -68.2167 71° East 520 598 31,100 50 Climbing Moncton Center
Sat 02:31:02 42.0667 -68.0167 64° Northeast 510 587 31,100  Level Moncton Center
Sat 02:32:02 42.1333 -67.8333 77° East 530 610 31,100  Level Moncton Center
Sat 02:33:02 42.1667 -67.6333 75° East 530 610 31,100  Level Moncton Center
Sat 02:34:02 42.2000 -67.4667 66° East 530 610 31,100  Level Moncton Center
Sat 02:35:02 42.2667 -67.2667 70° East 530 610 31,100  Level Moncton Center
Sat 02:36:02 42.3167 -67.0833 76° East 530 610 31,100  Level Moncton Center
Sat 02:37:02 42.3500 -66.9000 66° East 540 621 31,100  Level Moncton Center
Sat 02:38:02 42.4167 -66.7000 76° East 540 621 31,100  Level Moncton Center
Sat 02:39:02 42.4500 -66.5167 73° East 530 610 31,100  Level Moncton Center
Sat 02:40:02 42.5000 -66.3000 66° East 540 621 31,100  Level Moncton Center
Sat 02:41:02 42.5500 -66.1500 78° East 540 621 31,100 -50 Level Moncton Center
Sat 02:42:02 42.5833 -65.9333 61° Northeast 540 621 31,000 -50 Descending Moncton Center
Sat 02:43:02 42.6500 -65.7667 78° East 530 610 31,000  Level Moncton Center
Sat 02:44:02 42.6833 -65.5500 71° East 530 610 31,000 50 Level Moncton Center
Sat 02:45:02 42.7333 -65.3500 70° East 530 610 31,100  Climbing Moncton Center
Sat 02:46:02 42.7833 -65.1667 77° East 530 610 31,000  Descending Moncton Center
Sat 02:47:02 42.8167 -64.9667 70° East 530 610 31,100 50 Climbing Moncton Center
Sat 02:48:02 42.8667 -64.7833 77° East 530 610 31,100  Level Moncton Center
Sat 02:49:02 42.9000 -64.5833 70° East 530 610 31,100  Level Moncton Center
Sat 02:50:02 42.9500 -64.4000 76° East 530 610 31,100  Level Moncton Center
Sat 02:51:02 42.9833 -64.2167 71° East 530 610 31,100  Level Moncton Center
Sat 02:52:02 43.0333 -64.0167 69° East 530 610 31,100  Level Moncton Center
Sat 02:53:02 43.0833 -63.8333 78° East 530 610 31,100  Level Moncton Center
Sat 02:54:02 43.1167 -63.6167 69° East 530 610 31,100  Level Moncton Center
Sat 02:55:02 43.1667 -63.4333 76° East 520 598 31,100  Level Moncton Center
Sat 02:56:02 43.2000 -63.2500 69° East 520 598 31,100  Level Moncton Center
Sat 02:57:02 43.2500 -63.0667 83° East 520 598 31,100  Level Moncton Center
Sat 02:58:02 43.2667 -62.8667 71° East 520 598 31,100  Level Moncton Center
Sat 02:59:02 43.3167 -62.6667 76° East 520 598 31,100  Level Moncton Center
Sat 03:00:02 43.3500 -62.4833 69° East 520 598 31,100  Level Moncton Center
Sat 03:01:02 43.4000 -62.3000 76° East 520 598 31,100  Level Moncton Center
Sat 03:02:02 43.4333 -62.1167 77° East 520 598 31,100  Level Moncton Center
Sat 03:03:02 43.4667 -61.9167 71° East 510 587 31,100  Level Moncton Center
Sat 03:04:02 43.5167 -61.7167 76° East 510 587 31,100  Level Moncton Center
Sat 03:05:02 43.5500 -61.5333 69° East 510 587 31,100  Level Moncton Center
Sat 03:06:02 43.6000 -61.3500 83° East 510 587 31,100  Level Moncton Center
Sat 03:07:02 43.6167 -61.1667 72° East 510 587 31,100 -50 Level Moncton Center
Sat 03:08:02 43.6667 -60.9500 76° East 510 587 31,000  Descending Moncton Center
Sat 03:09:02 43.7000 -60.7667 76° East 510 587 31,100 50 Climbing Moncton Center
Sat 03:10:02 43.7333 -60.5833 76° East 510 587 31,100  Level Moncton Center
Sat 03:11:02 43.7667 -60.4000 77° East 510 587 31,100  Level Moncton Center
Sat 03:12:02 43.8000 -60.2000 76° East 510 587 31,100  Level Moncton Center
Sat 03:13:02 43.8333 -60.0167 83° East 510 587 31,100  Level Moncton Center
Sat 03:14:02 43.8500 -59.8333 71° East 500 575 31,100  Level Moncton Center
Sat 03:15:02 43.9000 -59.6333 76° East 510 587 31,100  Level Moncton Center
Sat 03:16:02 43.9333 -59.4500 78° East 500 575 31,100  Level Moncton Center
Sat 03:17:02 43.9667 -59.2333 81° East 510 587 31,100  Level Moncton Center
Sat 03:18:02 43.9833 -59.0833 72° East 510 587 31,100  Level Moncton Center
Sat 03:19:02 44.0333 -58.8667 77° East 510 587 31,100  Level Moncton Center
Sat 03:20:02 44.0667 -58.6667 76° East 510 587 31,100  Level Moncton Center
Sat 03:21:02 44.1000 -58.4833 76° East 500 575 31,100  Level Moncton Center
Sat 03:22:02 44.1333 -58.3000 83° East 500 575 31,100  Level Moncton Center
Sat 03:23:02 44.1500 -58.1000 69° East 510 587 31,100  Level Moncton Center
Sat 03:24:02 44.2000 -57.9167 83° East 510 587 31,100  Level Moncton Center
Sat 03:25:02 44.2167 -57.7167 76° East 510 587 31,100 700 Level Moncton Center
Sat 03:26:02 44.2500 -57.5333 77° East 510 587 32,500 1,000 Climbing Moncton Center
Sat 03:27:02 44.2833 -57.3333 77° East 510 587 33,100 300 Climbing Moncton Center
Sat 03:28:02 44.3167 -57.1333 83° East 510 587 33,100  Level Moncton Center
Sat 03:29:02 44.3333 -56.9500 77° East 510 587 33,100  Level Moncton Center
Sat 03:30:02 44.3667 -56.7500 74° East 510 587 33,100  Level Moncton Center
Sat 03:31:02 44.4000 -56.5833 77° East 500 575 33,100  Level Moncton Center
Sat 03:32:02 44.4333 -56.3833 83° East 500 575 33,100  Level Moncton Center
Sat 03:33:02 44.4500 -56.2000 81° East 490 564 33,100  Level Moncton Center
Sat 03:35:19 44.5000 -55.7500 79° East 510 587 33,100 -36 Level Gander Center
Sat 03:35:50 44.5167 -55.6333 76° East 500 575 33,000 -66 Descending Moncton Center
Sat 03:36:50 44.5500 -55.4500 83° East 490 564 33,000 50 Level Moncton Center
Sat 03:37:50 44.5667 -55.2500 83° East 490 564 33,100  Climbing Moncton Center
Sat 03:38:50 44.5833 -55.0667 83° East 510 587 33,000  Descending Moncton Center
Sat 03:39:50 44.6000 -54.8667 83° East 490 564 33,100 50 Climbing Moncton Center
Sat 03:40:50 44.6167 -54.6833 83° East 500 575 33,100  Level Moncton Center
Sat 03:41:50 44.6333 -54.4833 76° East 510 587 33,100  Level Moncton Center
Sat 03:42:50 44.6667 -54.3000 83° East 520 598 33,100  Level Moncton Center
Sat 03:43:50 44.6833 -54.1000 90° East 500 575 33,100  Level Moncton Center
Sat 03:44:50 44.6833 -53.8833 82° East 500 575 33,100  Level Moncton Center
Sat 03:45:50 44.7000 -53.7167 84° East 500 575 33,100  Level Moncton Center
Sat 03:46:50 44.7167 -53.5000 83° East 510 587 33,100  Level Moncton Center
Sat 03:47:50 44.7333 -53.3167 77° East 510 587 33,100  Level Moncton Center
Sat 03:48:50 44.7667 -53.1167 83° East 510 587 33,100  Level Moncton Center
Sat 03:49:50 44.7833 -52.9167 90° East 520 598 33,100  Level Moncton Center
Sat 03:50:50 44.7833 -52.7167 83° East 520 598 33,100  Level Moncton Center
Sat 03:51:50 44.8000 -52.5167 77° East 520 598 33,100  Level Moncton Center
Sat 03:52:50 44.8333 -52.3167 83° East 530 610 33,100  Level Moncton Center
Sat 03:53:50 44.8500 -52.1333 90° East 510 587 33,100  Level Moncton Center
Sat 03:54:50 44.8500 -51.9167 83° East 520 598 33,100 -86 Level Moncton Center
Sat 03:55:00 45.0000 -50.0000 264° West 541 623 33,000  Descending ETMS Enhanced Traffic Management System
Sat 03:55:50 44.8667 -51.7167 84° East 510 587 33,100 55 Climbing Moncton Center
Sat 03:56:50 44.8833 -51.5000 83° East 530 610 33,100  Level Moncton Center
Sat 03:57:50 44.9000 -51.3000 84° East 520 598 33,100  Level Moncton Center
Sat 03:58:55 44.9167 -51.0667 83° East 530 610 33,100 -48 Level Gander Center
Sat 03:59:55 44.9333 -50.8833 90° East 520 598 33,000  Descending Gander Center
Sat 04:00:55 44.9333 -50.6667 84° East 530 610 33,100 50 Climbing Gander Center
Sat 04:01:55 44.9500 -50.4500 84° East 520 598 33,100  Level Gander Center
Sat 04:02:55 44.9667 -50.2333 77° East 540 621 33,100  Level Gander Center
Sat 04:03:55 45.0000 -50.0333 90° East 530 610 33,100  Level Gander Center
Sat 04:04:55 45.0000 -49.8500 270° West 520 598 33,100 -92 Level Gander Center
Sat 04:05:00 45.0000 -50.0000 83° East 553 636 33,000  Descending ETMS Enhanced Traffic Management System
Sat 04:05:55 45.0333 -49.6333 77° East 540 621 33,100 52 Climbing Gander Center
Sat 04:06:55 45.0667 -49.4333 84° East 540 621 33,100  Level Gander Center
Sat 04:07:55 45.0833 -49.2167 77° East 540 621 33,100  Level Gander Center
Sat 04:08:55 45.1167 -49.0167 78° East 540 621 33,100  Level Gander Center
Sat 04:09:55 45.1500 -48.7833 75° East 540 621 33,100  Level Gander Center
Sat 04:10:55 45.1833 -48.6000 77° East 540 621 33,100 -50 Level Gander Center
Sat 04:11:55 45.2167 -48.4000 84° East 550 633 33,000 -50 Descending Gander Center
Sat 04:12:55 45.2333 -48.1667 75° East 550 633 33,000 50 Level Gander Center
Sat 04:13:55 45.2667 -47.9833 80° East 550 633 33,100  Climbing Gander Center
Sat 04:55:00 46.0000 -40.0000 62° Northeast 577 664 33,000 -1 Descending ETMS Enhanced Traffic Management System
Sat 05:41:00 49.0000 -30.0000 69° East 550 633 33,000  Level ETMS Enhanced Traffic Management System
Sat 05:41:52 49.1406 -28.7335 61° Northeast  Level FlightAware Approximate
Sat 05:42:52 49.1587 -28.5147 57° Northeast  Level FlightAware Approximate
Sat 05:43:52 49.1764 -28.2957 53° Northeast  Level FlightAware Approximate
Sat 05:44:52 49.1936 -28.0766 46° Northeast  Level FlightAware Approximate
Sat 05:48:52 49.6231 -27.3868 71° East 550 633 33,000  Level FlightAware Transoceanic
Sat 05:49:52 49.6728 -27.1636 71° East 550 633 33,000  Level FlightAware Transoceanic
Sat 05:50:52 49.7222 -26.9400 71° East 550 633 33,000  Level FlightAware Transoceanic
Sat 05:51:52 49.7711 -26.7159 71° East 550 633 33,000  Level FlightAware Transoceanic
Sat 05:52:52 49.8196 -26.4913 72° East 550 633 33,000  Level FlightAware Transoceanic
Sat 05:53:52 49.8677 -26.2663 72° East 550 633 33,000  Level FlightAware Transoceanic
Sat 05:54:52 49.9153 -26.0408 72° East 550 633 33,000  Level FlightAware Transoceanic
Sat 05:55:52 49.9625 -25.8149 72° East 550 633 33,000  Level FlightAware Transoceanic
Sat 05:56:52 50.0092 -25.5886 72° East 550 633 33,000  Level FlightAware Transoceanic
Sat 05:57:52 50.0555 -25.3618 72° East 550 633 33,000  Level FlightAware Transoceanic
Sat 05:58:52 50.1014 -25.1346 73° East 550 633 33,000  Level FlightAware Transoceanic
Sat 05:59:52 50.1468 -24.9069 73° East 550 633 33,000  Level FlightAware Transoceanic
Sat 06:00:52 50.1918 -24.6789 73° East 550 633 33,000  Level FlightAware Transoceanic
Sat 06:01:52 50.2363 -24.4504 73° East 550 633 33,000  Level FlightAware Transoceanic
Sat 06:02:52 50.2804 -24.2214 73° East 550 633 33,000  Level FlightAware Transoceanic
Sat 06:03:52 50.3240 -23.9921 74° East 550 633 33,000  Level FlightAware Transoceanic
Sat 06:04:52 50.3672 -23.7623 74° East 550 633 33,000  Level FlightAware Transoceanic
Sat 06:05:52 50.4099 -23.5321 74° East 550 633 33,000  Level FlightAware Transoceanic
Sat 06:06:52 50.4522 -23.3015 74° East 550 633 33,000  Level FlightAware Transoceanic
Sat 06:07:52 50.4940 -23.0705 74° East 550 633 33,000  Level FlightAware Transoceanic
Sat 06:08:52 50.5353 -22.8391 74° East 550 633 33,000  Level FlightAware Transoceanic
Sat 06:09:52 50.5762 -22.6073 75° East 550 633 33,000  Level FlightAware Transoceanic
Sat 06:10:52 50.6166 -22.3750 75° East 550 633 33,000  Level FlightAware Transoceanic
Sat 06:11:52 50.6566 -22.1424 75° East 550 633 33,000  Level FlightAware Transoceanic
Sat 06:12:52 50.6961 -21.9094 75° East 550 633 33,000  Level FlightAware Transoceanic
Sat 06:13:52 50.7351 -21.6760 75° East 550 633 33,000  Level FlightAware Transoceanic
Sat 06:14:52 50.7737 -21.4422 75° East 550 633 33,000  Level FlightAware Transoceanic
Sat 06:15:52 50.8118 -21.2080 76° East 550 633 33,000  Level FlightAware Transoceanic
Sat 06:16:52 50.8495 -20.9735 76° East 550 633 33,000  Level FlightAware Transoceanic
Sat 06:17:52 50.8866 -20.7385 76° East 550 633 33,000  Level FlightAware Transoceanic
Sat 06:18:52 50.9233 -20.5032 76° East 550 633 33,000  Level FlightAware Transoceanic
Sat 06:19:52 50.9595 -20.2675 76° East 550 633 33,000  Level FlightAware Transoceanic
Sat 06:20:52 50.9953 -20.0315 101° East 550 633 33,000 31 Level FlightAware Transoceanic
Sat 06:21:52 50.9786 -19.8062 101° East  Level FlightAware Approximate
Sat 06:22:52 50.9533 -19.5807 101° East  Level FlightAware Approximate
Sat 06:23:52 50.9275 -19.3554 102° East  Level FlightAware Approximate
Sat 06:24:52 50.9013 -19.1304 102° East  Level FlightAware Approximate
Sat 06:25:52 50.8746 -18.9056 102° East  Level FlightAware Approximate
Sat 06:26:52 50.8476 -18.6812 102° East  Level FlightAware Approximate
Sat 06:27:52 50.8201 -18.4569 102° East  Level FlightAware Approximate
Sat 06:28:52 50.7921 -18.2330 102° East  Level FlightAware Approximate
Sat 06:29:52 50.7638 -18.0093 103° East  Level FlightAware Approximate
Sat 06:30:52 50.7350 -17.7859 103° East  Level FlightAware Approximate
Sat 06:31:52 50.7058 -17.5627 103° East  Level FlightAware Approximate
Sat 06:32:52 50.6761 -17.3399 103° East  Level FlightAware Approximate
Sat 06:33:52 50.6460 -17.1173 103° East  Level FlightAware Approximate
Sat 06:34:52 50.6159 -16.8949 104° East  Level FlightAware Approximate
Sat 06:35:52 50.5850 -16.6729 104° East  Level FlightAware Approximate
Sat 06:36:52 50.5536 -16.4512 104° East  Level FlightAware Approximate
Sat 06:37:52 50.5219 -16.2297 104° East  Level FlightAware Approximate
Sat 06:38:52 50.4897 -16.0086 104° East  Level FlightAware Approximate
Sat 06:39:52 50.4571 -15.7878 104° East  Level FlightAware Approximate
Sat 06:40:52 50.4241 -15.5673 105° East  Level FlightAware Approximate
Sat 06:41:52 50.3787 -15.3526 105° East  Level FlightAware Approximate
Sat 06:42:52 50.3435 -15.1333 105° East  Level FlightAware Approximate
Sat 06:43:52 50.3080 -14.9143 105° East  Level FlightAware Approximate
Sat 06:44:52 50.2720 -14.6957 105° East  Level FlightAware Approximate
Sat 06:45:52 50.2356 -14.4774 105° East  Level FlightAware Approximate
Sat 06:46:52 50.1988 -14.2594 106° East  Level FlightAware Approximate
Sat 06:47:52 50.1615 -14.0417 106° East  Level FlightAware Approximate
Sat 06:48:52 50.1239 -13.8244 106° East  Level FlightAware Approximate
Sat 06:49:52 50.0859 -13.6074 106° East  Level FlightAware Approximate
Sat 06:50:52 50.0475 -13.3908 106° East  Level FlightAware Approximate
Sat 06:51:52 50.0087 -13.1746 107° East  Level FlightAware Approximate
Sat 06:52:52 49.9694 -12.9586 107° East  Level FlightAware Approximate
Sat 06:53:52 49.9298 -12.7431 107° East  Level FlightAware Approximate
Sat 06:54:52 49.8898 -12.5279 107° East  Level FlightAware Approximate
Sat 06:55:52 49.8493 -12.3130 107° East  Level FlightAware Approximate
Sat 06:56:52 49.8085 -12.0985 107° East  Level FlightAware Approximate
Sat 06:57:52 49.7673 -11.8844 108° East  Level FlightAware Approximate
Sat 06:58:52 49.7257 -11.6706 108° East  Level FlightAware Approximate
Sat 06:59:52 49.6837 -11.4572 108° East  Level FlightAware Approximate
Sat 07:00:52 49.6413 -11.2442 108° East  Level FlightAware Approximate
Sat 07:01:52 49.5985 -11.0315 108° East  Level FlightAware Approximate
Sat 07:02:52 49.5553 -10.8192 108° East  Level FlightAware Approximate
Sat 07:03:52 49.5117 -10.6073 109° East  Level FlightAware Approximate
Sat 07:04:52 49.4678 -10.3958 109° East  Level FlightAware Approximate
Sat 07:05:52 49.4235 -10.1847 109° East  Level FlightAware Approximate
Sat 07:06:52 49.3787 -9.9739 109° East  Level FlightAware Approximate
Sat 07:07:52 49.3336 -9.7635 109° East  Level FlightAware Approximate
Sat 07:08:52 49.2882 -9.5535 109° East  Level FlightAware Approximate
Sat 07:09:52 49.2423 -9.3439 110° East  Level FlightAware Approximate
Sat 07:10:52 49.1960 -9.1347 110° East  Level FlightAware Approximate
Sat 07:11:52 49.1494 -8.9259 110° East  Level FlightAware Approximate
Sat 07:12:52 49.1024 -8.7175 110° East  Level FlightAware Approximate
Sat 07:13:52 49.0551 -8.5095 110° East  Level FlightAware Approximate
Sat 07:14:52 49.0073 -8.3018 110° East  Level FlightAware Approximate
Sat 07:15:52 48.9592 -8.0946 111° Southeast  Level FlightAware Approximate
Sat 07:16:52 48.9733 -7.9015 111° Southeast  Level FlightAware Approximate
Sat 07:17:52 48.9235 -7.6953 111° Southeast  Level FlightAware Approximate
Sat 07:18:52 48.8663 -7.4946 111° Southeast  Level FlightAware Approximate
Sat 07:19:52 48.8161 -7.2892 112° Southeast  Level FlightAware Approximate
Sat 07:20:52 48.7655 -7.0841 112° Southeast  Level FlightAware Approximate
Sat 07:21:52 48.7145 -6.8794 112° Southeast  Level FlightAware Approximate
Sat 07:22:52 48.6632 -6.6752 112° Southeast  Level FlightAware Approximate
Sat 07:23:52 48.6115 -6.4714 112° Southeast  Level FlightAware Approximate
Sat 07:24:52 48.5595 -6.2680 112° Southeast  Level FlightAware Approximate
Sat 07:25:52 48.5071 -6.0650 113° Southeast  Level FlightAware Approximate
Sat 07:26:52 48.4544 -5.8624 113° Southeast  Level FlightAware Approximate
Sat 07:27:52 48.4013 -5.6603 113° Southeast  Level FlightAware Approximate
Sat 07:28:52 48.3478 -5.4586 113° Southeast  Level FlightAware Approximate
Sat 07:29:52 48.2940 -5.2573 113° Southeast  Level FlightAware Approximate
Sat 07:30:52 48.2398 -5.0564 113° Southeast  Level FlightAware Approximate
Sat 07:31:52 48.1853 -4.8560 114° Southeast  Level FlightAware Approximate
Sat 07:32:52 48.1305 -4.6560 114° Southeast  Level FlightAware Approximate
Sat 07:33:52 48.0753 -4.4564 114° Southeast  Level FlightAware Approximate
Sat 07:34:52 48.0197 -4.2572 114° Southeast  Level FlightAware Approximate
Sat 07:35:52 47.9638 -4.0585 114° Southeast  Level FlightAware Approximate
Sat 07:36:52 47.9076 -3.8602 114° Southeast  Level FlightAware Approximate
Sat 07:37:52 47.8510 -3.6623 115° Southeast  Level FlightAware Approximate
Sat 07:38:52 47.7941 -3.4649 115° Southeast  Level FlightAware Approximate
Sat 07:39:52 47.7369 -3.2679 115° Southeast  Level FlightAware Approximate
Sat 07:40:52 47.6793 -3.0713 115° Southeast  Level FlightAware Approximate
Sat 07:41:52 47.6214 -2.8752 115° Southeast  Level FlightAware Approximate
Sat 07:42:52 47.5631 -2.6795 115° Southeast  Level FlightAware Approximate
Sat 07:43:52 47.5045 -2.4843 116° Southeast  Level FlightAware Approximate
Sat 07:44:52 47.4456 -2.2894 116° Southeast  Level FlightAware Approximate
Sat 07:45:52 47.3864 -2.0951 116° Southeast  Level FlightAware Approximate
Sat 07:46:52 47.3268 -1.9011 116° Southeast  Level FlightAware Approximate
Sat 07:47:52 47.2669 -1.7076 116° Southeast  Level FlightAware Approximate
Sat 07:48:52 47.2067 -1.5145 117° Southeast  Level FlightAware Approximate
Sat 07:49:52 47.1461 -1.3219 117° Southeast  Level FlightAware Approximate
Sat 07:50:52 47.0853 -1.1297 117° Southeast  Level FlightAware Approximate
Sat 07:51:52 47.0241 -0.9380 117° Southeast  Level FlightAware Approximate
Sat 07:52:52 46.9626 -0.7466 117° Southeast  Level FlightAware Approximate
Sat 07:53:52 46.9007 -0.5558 117° Southeast  Level FlightAware Approximate
Sat 07:54:52 46.8386 -0.3653 118° Southeast  Level FlightAware Approximate
Sat 07:55:52 46.7761 -0.1753 118° Southeast  Level FlightAware Approximate
Sat 07:56:52 46.7133 0.0142 118° Southeast  Level FlightAware Approximate
Sat 07:57:52 46.6502 0.2033 118° Southeast  Level FlightAware Approximate
Sat 07:58:52 46.5868 0.3920 118° Southeast  Level FlightAware Approximate
Sat 07:59:52 46.5231 0.5802 119° Southeast  Level FlightAware Approximate
Sat 08:00:52 46.4591 0.7680 119° Southeast  Level FlightAware Approximate
Sat 08:01:52 46.3948 0.9553 119° Southeast  Level FlightAware Approximate
Sat 08:02:52 46.3302 1.1422 119° Southeast  Level FlightAware Approximate
Sat 08:03:52 46.2652 1.3287 120° Southeast  Level FlightAware Approximate
Sat 08:04:52 46.2000 1.5147 120° Southeast  Level FlightAware Approximate
Sat 08:05:52 46.1345 1.7002 120° Southeast  Level FlightAware Approximate
Sat 08:06:52 46.0686 1.8854 120° Southeast  Level FlightAware Approximate
Sat 08:07:52 46.0025 2.0701 121° Southeast  Level FlightAware Approximate
Sat 08:08:52 45.9361 2.2543 121° Southeast  Level FlightAware Approximate
Sat 08:09:52 45.8694 2.4381 121° Southeast  Level FlightAware Approximate
Sat 08:10:52 45.8023 2.6214 121° Southeast  Level FlightAware Approximate
Sat 08:11:52 45.7350 2.8044 122° Southeast  Level FlightAware Approximate
Sat 08:12:52 45.6674 2.9869 122° Southeast  Level FlightAware Approximate
Sat 08:13:52 45.5995 3.1689 122° Southeast  Level FlightAware Approximate
Sat 08:14:52 45.5263 3.3463 123° Southeast  Level FlightAware Approximate
Sat 08:15:52 45.4730 3.5376 123° Southeast  Level FlightAware Approximate
Sat 08:16:52 45.4194 3.7285 124° Southeast  Level FlightAware Approximate
Sat 08:17:52 45.3655 3.9190 125° Southeast  Level FlightAware Approximate
Sat 08:18:52 45.3112 4.1092 126° Southeast  Level FlightAware Approximate
Sat 08:19:52 45.2566 4.2990 127° Southeast  Level FlightAware Approximate
Sat 08:20:52 45.2017 4.4884 129° Southeast  Level FlightAware Approximate
Sat 08:21:52 45.1465 4.6774 130° Southeast  Level FlightAware Approximate
Sat 08:22:52 45.0910 4.8661 132° Southeast  Level FlightAware Approximate
Sat 08:23:52 45.0352 5.0545 134° Southeast  Level FlightAware Approximate
Sat 08:24:52 44.9790 5.2424 137° Southeast  Level FlightAware Approximate
Sat 08:25:52 44.9226 5.4300 140° Southeast  Level FlightAware Approximate
Sat 08:26:52 44.8658 5.6172 144° Southeast  Level FlightAware Approximate
Sat 08:27:52 44.8088 5.8041 150° Southeast  Level FlightAware Approximate
Sat 08:28:52 44.7514 5.9906 156° South  Level FlightAware Approximate
Sat 08:29:52 44.6938 6.1767 166° South  Level FlightAware Approximate
Sat 08:30:52 44.6358 6.3624 178° South  Level FlightAware Approximate
Sat 08:32:26 44.0876 6.3931 123° Southeast 514 592 37,100  Level FlightAware ADS-B
Sat 08:32:57 44.0478 6.4798 123° Southeast 515 593 37,100  Level FlightAware ADS-B
Sat 08:33:29 44.0070 6.5682 123° Southeast 515 593 37,100  Level FlightAware ADS-B
Sat 08:34:03 43.9623 6.6651 122° Southeast 516 594 37,100  Level FlightAware ADS-B
Sat 08:34:37 43.9187 6.7604 122° Southeast 519 597 37,100  Level FlightAware ADS-B
Sat 08:35:07 43.8802 6.8449 122° Southeast 520 598 37,100  Level FlightAware ADS-B
Sat 08:35:38 43.8409 6.9309 121° Southeast 520 598 37,100  Level FlightAware ADS-B
Sat 08:36:10 43.8015 7.0207 121° Southeast 520 598 37,100  Level FlightAware ADS-B
Sat 08:36:40 43.7640 7.1059 121° Southeast 521 600 37,100  Level FlightAware ADS-B
Sat 08:37:11 43.7249 7.1947 121° Southeast 520 598 37,100  Level FlightAware ADS-B
Sat 08:37:42 43.6857 7.2841 122° Southeast 519 597 37,100  Level FlightAware ADS-B
Sat 08:38:13 43.6474 7.3700 122° Southeast 520 598 37,100  Level FlightAware ADS-B
Sat 08:38:43 43.6090 7.4554 122° Southeast 520 598 37,100  Level FlightAware ADS-B
Sat 08:39:13 43.5707 7.5398 123° Southeast 517 595 37,100  Level FlightAware ADS-B
Sat 08:39:49 43.5249 7.6382 123° Southeast 514 592 37,100  Level FlightAware ADS-B
Sat 08:40:19 43.4857 7.7206 123° Southeast 513 590 37,100  Level FlightAware ADS-B
Sat 08:40:49 43.4468 7.8016 124° Southeast 509 586 37,100  Level FlightAware ADS-B
Sat 08:41:24 43.4011 7.8952 124° Southeast 508 585 37,100  Level FlightAware ADS-B
Sat 08:41:54 43.3609 7.9768 124° Southeast 508 585 37,100  Level FlightAware ADS-B
Sat 08:42:32 43.3114 8.0773 124° Southeast 506 582 37,100  Level FlightAware ADS-B
Sat 08:43:31 43.2345 8.2337 124° Southeast 503 579 37,100  Level FlightAware ADS-B
Sat 08:44:02 43.1946 8.3149 124° Southeast 504 580 37,100  Level FlightAware ADS-B
Sat 08:44:36 43.1504 8.4050 124° Southeast 503 579 37,100  Level FlightAware ADS-B
Sat 08:45:56 43.0471 8.6153 124° Southeast 502 578 37,100  Level FlightAware ADS-B
Sat 08:46:57 42.9679 8.7757 112° Southeast 499 574 37,100  Level FlightAware ADS-B
Sat 08:54:52 42.5283 10.2111 113° Southeast  Level FlightAware Approximate
Sat 08:55:52 42.4715 10.3910 113° Southeast  Level FlightAware Approximate
Sat 08:56:52 42.4144 10.5705 113° Southeast  Level FlightAware Approximate
Sat 08:57:52 42.3570 10.7497 113° Southeast  Level FlightAware Approximate
Sat 08:58:52 42.2994 10.9286 114° Southeast  Level FlightAware Approximate
Sat 08:59:52 42.2415 11.1071 114° Southeast  Level FlightAware Approximate
Sat 09:00:52 42.1833 11.2853 114° Southeast  Level FlightAware Approximate
Sat 09:01:52 42.1248 11.4632 114° Southeast  Level FlightAware Approximate
Sat 09:02:52 42.0661 11.6408 114° Southeast  Level FlightAware Approximate
Sat 09:03:52 42.0070 11.8180 114° Southeast  Level FlightAware Approximate
Sat 09:04:52 41.9477 11.9950 114° Southeast  Level FlightAware Approximate
Sat 09:05:52 41.8882 12.1715 114° Southeast  Level FlightAware Approximate
Sat 09:06:52 41.8284 12.3478 115° Southeast  Level FlightAware Approximate
Sat 09:07:52 41.7682 12.5237 115° Southeast  Level FlightAware Approximate
Sat 09:08:52 41.7079 12.6993 115° Southeast  Level FlightAware Approximate
Sat 09:09:52 41.6472 12.8745 115° Southeast  Level FlightAware Approximate
Sat 09:10:52 41.5863 13.0495 115° Southeast  Level FlightAware Approximate
Sat 09:11:52 41.5252 13.2241 115° Southeast  Level FlightAware Approximate
Sat 09:12:52 41.4637 13.3983 115° Southeast  Level FlightAware Approximate
Sat 09:13:52 41.4021 13.5723 115° Southeast  Level FlightAware Approximate
Sat 09:14:52 41.3401 13.7459 115° Southeast  Level FlightAware Approximate
Sat 09:15:52 41.2779 13.9192 116° Southeast  Level FlightAware Approximate
Sat 09:16:52 41.2154 14.0921 116° Southeast  Level FlightAware Approximate
Sat 09:17:52 41.1527 14.2647 114° Southeast  Level FlightAware Approximate
Sat 09:18:52 41.0945 14.4400 114° Southeast  Level FlightAware Approximate
Sat 09:19:52 41.0361 14.6149 114° Southeast  Level FlightAware Approximate
Sat 09:20:52 40.9774 14.7895 114° Southeast  Level FlightAware Approximate
Sat 09:21:52 40.9185 14.9639 114° Southeast  Level FlightAware Approximate
Sat 09:22:52 40.8593 15.1379 114° Southeast  Level FlightAware Approximate
Sat 09:23:52 40.7998 15.3116 114° Southeast  Level FlightAware Approximate
Sat 09:24:52 40.7401 15.4850 115° Southeast  Level FlightAware Approximate
Sat 09:25:52 40.6801 15.6580 115° Southeast  Level FlightAware Approximate
Sat 09:26:52 40.6198 15.8308 115° Southeast  Level FlightAware Approximate
Sat 09:27:52 40.5593 16.0033 115° Southeast  Level FlightAware Approximate
Sat 09:28:52 40.4986 16.1754 115° Southeast  Level FlightAware Approximate
Sat 09:29:52 40.4375 16.3472 115° Southeast  Level FlightAware Approximate
Sat 09:30:52 40.3763 16.5187 115° Southeast  Level FlightAware Approximate
Sat 09:31:52 40.3148 16.6900 115° Southeast  Level FlightAware Approximate
Sat 09:32:52 40.2530 16.8608 115° Southeast  Level FlightAware Approximate
Sat 09:33:52 40.1909 17.0314 116° Southeast  Level FlightAware Approximate
Sat 09:34:52 40.1287 17.2017 116° Southeast  Level FlightAware Approximate
Sat 09:35:52 40.0661 17.3717 116° Southeast  Level FlightAware Approximate
Sat 09:36:52 40.0034 17.5413 116° Southeast  Level FlightAware Approximate
Sat 09:37:52 39.9403 17.7106 116° Southeast  Level FlightAware Approximate
Sat 09:38:52 39.8771 17.8796 116° Southeast  Level FlightAware Approximate
Sat 09:39:52 39.8136 18.0483 116° Southeast  Level FlightAware Approximate
Sat 09:40:52 39.7498 18.2167 116° Southeast  Level FlightAware Approximate
Sat 09:41:52 39.6858 18.3848 116° Southeast  Level FlightAware Approximate
Sat 09:42:52 39.6216 18.5526 116° Southeast  Level FlightAware Approximate
Sat 09:43:52 39.5571 18.7201 117° Southeast  Level FlightAware Approximate
Sat 09:44:52 39.4924 18.8872 117° Southeast  Level FlightAware Approximate
Sat 09:45:52 39.4274 19.0540 117° Southeast  Level FlightAware Approximate
Sat 09:46:52 39.3622 19.2206 117° Southeast  Level FlightAware Approximate
Sat 09:47:52 39.2968 19.3868 117° Southeast  Level FlightAware Approximate
Sat 09:48:52 39.2311 19.5527 117° Southeast  Level FlightAware Approximate
Sat 09:49:52 39.1652 19.7183 117° Southeast  Level FlightAware Approximate
Sat 09:50:52 39.0991 19.8835 117° Southeast  Level FlightAware Approximate
Sat 09:51:52 39.0327 20.0485 117° Southeast  Level FlightAware Approximate
Sat 09:52:52 38.9661 20.2132 118° Southeast  Level FlightAware Approximate
Sat 09:53:52 38.8993 20.3775 118° Southeast  Level FlightAware Approximate
Sat 09:54:52 38.8322 20.5415 118° Southeast  Level FlightAware Approximate
Sat 09:55:52 38.7649 20.7053 118° Southeast  Level FlightAware Approximate
Sat 09:56:52 38.6974 20.8687 118° Southeast  Level FlightAware Approximate
Sat 09:57:52 38.6296 21.0318 118° Southeast  Level FlightAware Approximate
Sat 09:58:52 38.5617 21.1946 118° Southeast  Level FlightAware Approximate
Sat 09:59:52 38.4935 21.3571 118° Southeast  Level FlightAware Approximate
Sat 10:00:52 38.4250 21.5193 118° Southeast  Level FlightAware Approximate
Sat 10:01:52 38.3564 21.6812 118° Southeast  Level FlightAware Approximate
Sat 10:02:52 38.2875 21.8428 119° Southeast  Level FlightAware Approximate
Sat 10:03:52 38.2184 22.0040 119° Southeast  Level FlightAware Approximate
Sat 10:04:52 38.1491 22.1650 119° Southeast  Level FlightAware Approximate
Sat 10:05:52 38.0796 22.3256 119° Southeast  Level FlightAware Approximate
Sat 10:06:52 38.0098 22.4860 119° Southeast  Level FlightAware Approximate
Sat 10:07:52 37.9399 22.6460 119° Southeast  Level FlightAware Approximate
Sat 10:08:52 37.8697 22.8058 119° Southeast  Level FlightAware Approximate
Sat 10:09:52 37.7993 22.9652 119° Southeast  Level FlightAware Approximate
Sat 10:10:52 37.7287 23.1243 119° Southeast  Level FlightAware Approximate
Sat 10:11:52 37.6578 23.2832 119° Southeast  Level FlightAware Approximate
Sat 10:12:52 37.5868 23.4417 120° Southeast  Level FlightAware Approximate
Sat 10:13:52 37.5156 23.5999 120° Southeast  Level FlightAware Approximate
Sat 10:14:52 37.4441 23.7578 120° Southeast  Level FlightAware Approximate
Sat 10:15:52 37.3724 23.9154 120° Southeast  Level FlightAware Approximate
Sat 10:16:52 37.3005 24.0728 120° Southeast  Level FlightAware Approximate
Sat 10:17:52 37.2285 24.2298 120° Southeast  Level FlightAware Approximate
Sat 10:18:52 37.1562 24.3865 120° Southeast  Level FlightAware Approximate
Sat 10:19:52 37.0837 24.5429 119° Southeast  Level FlightAware Approximate
Sat 10:20:52 37.0129 24.7004 119° Southeast  Level FlightAware Approximate
Sat 10:21:52 36.9420 24.8577 120° Southeast  Level FlightAware Approximate
Sat 10:22:52 36.8708 25.0146 120° Southeast  Level FlightAware Approximate
Sat 10:23:52 36.7995 25.1713 120° Southeast  Level FlightAware Approximate
Sat 10:24:52 36.7279 25.3276 120° Southeast  Level FlightAware Approximate
Sat 10:25:52 36.6606 25.4741 120° Southeast  Level FlightAware Approximate
Sat 10:26:52 36.5931 25.6204 120° Southeast  Level FlightAware Approximate
Sat 10:27:52 36.5253 25.7663 120° Southeast  Level FlightAware Approximate
Sat 10:28:52 36.4575 25.9121 120° Southeast  Level FlightAware Approximate
Sat 10:29:52 36.3894 26.0575 120° Southeast  Level FlightAware Approximate
Sat 10:30:52 36.3212 26.2028 120° Southeast  Level FlightAware Approximate
Sat 10:31:52 36.2527 26.3477 120° Southeast  Level FlightAware Approximate
Sat 10:32:52 36.1842 26.4924 120° Southeast  Level FlightAware Approximate
Sat 10:33:52 36.1171 26.6381 120° Southeast  Level FlightAware Approximate
Sat 10:34:52 36.0499 26.7836 119° Southeast  Level FlightAware Approximate
Sat 10:35:52 35.9846 26.9302 119° Southeast  Level FlightAware Approximate
Sat 10:36:52 35.9190 27.0766 119° Southeast  Level FlightAware Approximate
Sat 10:37:52 35.8533 27.2227 119° Southeast  Level FlightAware Approximate
Sat 10:38:52 35.7874 27.3686 119° Southeast  Level FlightAware Approximate
Sat 10:39:52 35.7213 27.5142 119° Southeast  Level FlightAware Approximate
Sat 10:40:52 35.6550 27.6596 119° Southeast  Level FlightAware Approximate
Sat 10:41:52 35.5886 27.8048 119° Southeast  Level FlightAware Approximate
Sat 10:42:52 35.5220 27.9497 120° Southeast  Level FlightAware Approximate
Sat 10:43:52 35.4552 28.0943 120° Southeast  Level FlightAware Approximate
Sat 10:44:52 35.3883 28.2388 120° Southeast  Level FlightAware Approximate
Sat 10:45:52 35.3212 28.3830 120° Southeast  Level FlightAware Approximate
Sat 10:46:52 35.2539 28.5269 120° Southeast  Level FlightAware Approximate
Sat 10:47:52 35.1864 28.6706 120° Southeast  Level FlightAware Approximate
Sat 10:48:52 35.1188 28.8141 120° Southeast  Level FlightAware Approximate
Sat 10:49:52 35.0513 28.9576 120° Southeast  Level FlightAware Approximate
Sat 10:50:52 34.9837 29.1008 120° Southeast  Level FlightAware Approximate
Sat 10:51:52 34.9160 29.2439 120° Southeast  Level FlightAware Approximate
Sat 10:52:52 34.8480 29.3866 120° Southeast  Level FlightAware Approximate
Sat 10:53:52 34.7799 29.5292 120° Southeast  Level FlightAware Approximate
Sat 10:54:52 34.7116 29.6715 120° Southeast  Level FlightAware Approximate
Sat 10:55:52 34.6432 29.8136 120° Southeast  Level FlightAware Approximate
Sat 10:56:52 34.5746 29.9554 120° Southeast  Level FlightAware Approximate
Sat 10:57:52 34.5070 30.0978 120° Southeast  Level FlightAware Approximate
Sat 10:58:52 34.4392 30.2400 120° Southeast  Level FlightAware Approximate
Sat 10:59:52 34.3712 30.3819 120° Southeast  Level FlightAware Approximate
Sat 11:00:52 34.3031 30.5236 120° Southeast  Level FlightAware Approximate
Sat 11:01:52 34.2348 30.6651 120° Southeast  Level FlightAware Approximate
Sat 11:02:52 34.1664 30.8064 120° Southeast  Level FlightAware Approximate
Sat 11:03:52 34.0978 30.9474 121° Southeast  Level FlightAware Approximate
Sat 11:04:52 34.0271 31.0868 122° Southeast  Level FlightAware Approximate
Sat 11:05:52 33.9562 31.2260 122° Southeast  Level FlightAware Approximate
Sat 11:06:52 33.8852 31.3649 122° Southeast  Level FlightAware Approximate
Sat 11:07:52 33.8140 31.5036 122° Southeast  Level FlightAware Approximate
Sat 11:08:52 33.7427 31.6421 122° Southeast  Level FlightAware Approximate
Sat 11:09:52 33.6712 31.7803 122° Southeast  Level FlightAware Approximate
Sat 11:10:52 33.5995 31.9183 122° Southeast  Level FlightAware Approximate
Sat 11:11:52 33.5277 32.0561 122° Southeast  Level FlightAware Approximate
Sat 11:12:52 33.4558 32.1936 122° Southeast  Level FlightAware Approximate
Sat 11:13:52 33.3837 32.3310 122° Southeast  Level FlightAware Approximate
Sat 11:14:52 33.3114 32.4681 122° Southeast  Level FlightAware Approximate
Sat 11:15:52 33.2390 32.6049 122° Southeast  Level FlightAware Approximate
Sat 11:16:52 33.1665 32.7416 124° Southeast  Level FlightAware Approximate
Sat 11:17:52 33.0901 32.8744 122° Southeast  Level FlightAware Approximate
Sat 11:18:52 33.0175 33.0108 117° Southeast  Level FlightAware Approximate
Sat 11:19:52 32.9571 33.1527 123° Southeast  Level FlightAware Approximate
Sat 11:20:52 32.8833 33.2879 118° Southeast  Level FlightAware Approximate
Sat 11:21:52 32.8187 33.4295 124° Southeast  Level FlightAware Approximate
Sat 11:22:52 32.7438 33.5636 118° Southeast  Level FlightAware Approximate
Sat 11:23:52 32.6811 33.7062 124° Southeast  Level FlightAware Approximate
Sat 11:24:52 32.6044 33.8387 125° Southeast  Level FlightAware Approximate
Sat 11:25:52 32.5276 33.9711 110° East  Level FlightAware Approximate
Sat 11:26:52 32.4815 34.1221 128° Southeast  Level FlightAware Approximate
Sat 11:27:52 32.4000 34.2467 132° Southeast  Level FlightAware Approximate
Sat 11:28:52 32.3092 34.3656 131° Southeast  Level FlightAware Approximate
Sat 11:29:52 32.2208 34.4868 128° Southeast  Level FlightAware Approximate
Sat 11:30:52 32.1376 34.6124 123° Southeast  Level FlightAware Approximate
Sat 11:31:52 32.0648 34.7463 122° Southeast  Level FlightAware Approximate
Sat 11:32:52 32.0000 34.8667 42° Northeast  Level FlightAware Approximate
Sat 11:33:52 32.0999 34.9744 300° West  Level Estimated
Sat 11:34:52 32.9168 33.2333 123° Southeast  Level FlightAware Approximate
Sat 11:35:52 32.8428 33.3682 123° Southeast  Level FlightAware Approximate
Sat 11:36:52 32.7686 33.5030 123° Southeast  Level FlightAware Approximate
Sat 11:37:52 32.6942 33.6375 123° Southeast  Level FlightAware Approximate
Sat 11:38:52 32.6197 33.7718 123° Southeast  Level FlightAware Approximate
Sat 11:39:52 32.5451 33.9059 123° Southeast  Level FlightAware Approximate
Sat 11:40:52 32.4703 34.0397 124° Southeast  Level FlightAware Approximate
Sat 11:41:52 32.3954 34.1734 124° Southeast  Level FlightAware Approximate
Sat 11:42:52 32.3203 34.3068 124° Southeast  Level FlightAware Approximate
Sat 11:43:52 32.2451 34.4400 124° Southeast  Level FlightAware Approximate
Sat 11:44:52 32.1698 34.5729 124° Southeast  Level FlightAware Approximate
Sat 11:45:52 32.0943 34.7057 124° Southeast  Level FlightAware Approximate
Sat 11:46:52 32.0176 34.8374 104° East  Level FlightAware Approximate
Sat 11:47:52 31.9858 34.9926 284° West  Level Estimated
Sat 11:48:52 32.0176 34.8374 104° East  Level Estimated
Sat 11:49:52 31.9858 34.9926 278° West  Level Estimated
Sat 11:50:52 32.0000 34.8667 42° Northeast  Level FlightAware Approximate
Sat 11:51:52 32.0999 34.9744 222° Southwest  Level Estimated
Sat 11:52:52 32.0000 34.8667 42° Northeast  Level FlightAware Approximate
Sat 11:53:52 32.0999 34.9744 222° Southwest  Level Estimated
Sat 11:54:52 32.0000 34.8667 42° Northeast  Level FlightAware Approximate
Sat 11:55:52 32.0999 34.9744 222° Southwest  Level Estimated
Sat 11:56:52 32.0000 34.8667 42° Northeast  Level FlightAware Approximate
Sat 11:57:52 32.0999 34.9744 222° Southwest  Level Estimated
Sat 11:58:52 32.0000 34.8667 42° Northeast  Level FlightAware Approximate
Sat 11:59:52 32.0999 34.9744 42° Northeast  Level Estimated

Login

Don't have an account? Register now (free) for customized features, flight alerts, and more!